首页
METAR-TAF:

METAR-TAF

机场 :

阿让, 法国

纬度: 44-11N, 经度: 000-36E, 海拔: 61米

当前天气观测

该预报发布于36分钟前的17:00 UTC
风速1节,风向
温度 5°C
湿度 70%
气压 1016 hPa
能见度10公里或以上
1500米以下无云,无积雨云

METAR: LFBA 191700Z AUTO 17001KT CAVOK 05/00 Q1016 NOSIG

时间: 18:36 (17:36 UTC)

预报

该预报发布于36分钟前的17:00 UTC
预报有效从19日的 18点(UTC)到 20日的 03点(UTC)
风速2节,风向多变
能见度10公里或以上
1500米以下无云,无积雨云
几率 40% :
短暂存在
从 19日的 22点(UTC)到 20日的 03点(UTC)
能見度: 0300

TAF: LFBA 191700Z 1918/2003 VRB02KT CAVOK PROB40 TEMPO 1922/2003 0300 FG VV///

超过4000个机场的气象观测和天气预报(METAR&TAF报告)。

可查询的气象台以黄色和红色小点在地图上表示。

将鼠标移到小点上方,可查看气象台名称。

然后点击查看天气观测和预报。

如需切换地图:点击带黑十字的绿色按钮放大地图;点击带横线的绿色按钮缩小地图;或者点击绿色箭头查看邻近地区的地图。


METAR-TAF: